createdAt,value
2022-08-07T00:02:36.972Z,4.13
2022-08-07T00:05:04.165Z,4.10
2022-08-07T00:07:40.059Z,3.93
2022-08-07T00:10:27.291Z,4.10
2022-08-07T00:13:00.986Z,3.60
2022-08-07T00:15:38.442Z,4.10
2022-08-07T00:18:19.757Z,3.83
2022-08-07T00:20:53.602Z,3.90
2022-08-07T00:23:22.439Z,3.93
2022-08-07T00:25:52.462Z,4.00
2022-08-07T00:28:33.481Z,4.07
2022-08-07T00:31:04.322Z,3.70
2022-08-07T00:33:34.385Z,3.80
2022-08-07T00:36:04.419Z,4.07
2022-08-07T00:38:34.046Z,3.67
2022-08-07T00:41:02.423Z,3.90
2022-08-07T00:44:00.598Z,3.83
2022-08-07T00:46:19.169Z,4.40
2022-08-07T00:48:49.980Z,3.53
2022-08-07T00:51:22.065Z,3.20
2022-08-07T00:53:55.224Z,3.70
2022-08-07T00:56:30.022Z,3.70
2022-08-07T00:58:59.357Z,3.50
2022-08-07T01:01:28.186Z,3.40
2022-08-07T01:04:21.723Z,3.63
2022-08-07T01:06:56.100Z,3.40
2022-08-07T01:10:04.991Z,3.60
2022-08-07T01:12:29.308Z,3.23
2022-08-07T01:15:01.514Z,2.90
2022-08-07T01:17:32.685Z,3.40
2022-08-07T01:20:03.904Z,3.33
2022-08-07T01:22:34.099Z,3.43
2022-08-07T01:25:05.261Z,3.47
2022-08-07T01:27:52.606Z,3.37
2022-08-07T01:30:27.176Z,3.57
2022-08-07T01:32:55.718Z,3.07
2022-08-07T01:35:26.612Z,4.00
2022-08-07T01:38:25.056Z,3.20
2022-08-07T01:40:55.938Z,3.40
2022-08-07T01:43:25.921Z,3.53
2022-08-07T01:45:55.039Z,3.50
2022-08-07T01:48:30.146Z,3.20
2022-08-07T01:51:24.436Z,3.60
2022-08-07T01:54:12.620Z,3.70
2022-08-07T01:56:43.169Z,3.07
2022-08-07T01:59:20.878Z,3.17
2022-08-07T02:02:04.197Z,3.70
2022-08-07T02:04:38.894Z,3.13
2022-08-07T02:07:22.415Z,3.60
2022-08-07T02:10:06.022Z,3.73
2022-08-07T02:12:36.993Z,3.30
2022-08-07T02:15:07.053Z,3.60
2022-08-07T02:17:35.797Z,3.90
2022-08-07T02:20:09.995Z,3.47
2022-08-07T02:22:46.170Z,3.50
2022-08-07T02:25:18.333Z,3.27
2022-08-07T02:27:52.109Z,3.17
2022-08-07T02:30:21.625Z,3.70
2022-08-07T02:33:07.239Z,3.57
2022-08-07T02:36:28.754Z,3.70
2022-08-07T02:38:31.599Z,3.97
2022-08-07T02:41:03.699Z,3.50
2022-08-07T02:43:32.896Z,3.20
2022-08-07T02:46:02.862Z,4.10
2022-08-07T02:48:32.146Z,3.50
2022-08-07T02:51:05.083Z,3.20
2022-08-07T02:53:38.562Z,3.20
2022-08-07T02:56:17.363Z,3.17
2022-08-07T02:58:47.289Z,2.93
2022-08-07T03:01:19.014Z,3.43
2022-08-07T03:04:07.686Z,3.70
2022-08-07T03:06:41.455Z,4.00
2022-08-07T03:09:11.625Z,3.00
2022-08-07T03:11:51.640Z,3.57
2022-08-07T03:14:22.538Z,3.00
2022-08-07T03:16:52.428Z,3.67
2022-08-07T03:19:21.305Z,2.60
2022-08-07T03:21:50.764Z,3.70
2022-08-07T03:24:27.070Z,2.90
2022-08-07T03:27:00.548Z,3.50
2022-08-07T03:29:29.870Z,3.80
2022-08-07T03:31:58.414Z,3.40
2022-08-07T03:34:28.851Z,3.37
2022-08-07T03:36:59.099Z,3.23
2022-08-07T03:39:58.969Z,3.20
2022-08-07T03:42:19.891Z,3.10
2022-08-07T03:44:53.501Z,3.77
2022-08-07T03:47:26.223Z,3.30
2022-08-07T03:49:57.091Z,3.37
2022-08-07T03:52:27.375Z,3.30
2022-08-07T03:54:58.953Z,3.90
2022-08-07T03:58:33.219Z,3.60
2022-08-07T04:00:29.313Z,3.33
2022-08-07T04:03:03.768Z,3.43
2022-08-07T04:05:40.526Z,3.10
2022-08-07T04:08:12.412Z,3.17
2022-08-07T04:10:42.400Z,3.50
2022-08-07T04:13:15.035Z,3.80
2022-08-07T04:15:45.595Z,3.50
2022-08-07T04:18:57.654Z,3.60
2022-08-07T04:21:07.105Z,3.20
2022-08-07T04:23:43.560Z,3.03
2022-08-07T04:26:28.444Z,3.47
2022-08-07T04:28:58.685Z,3.20
2022-08-07T04:31:38.963Z,2.97
2022-08-07T04:34:17.354Z,3.23
2022-08-07T04:36:55.915Z,3.50
2022-08-07T04:39:26.294Z,2.93
2022-08-07T04:41:54.897Z,3.27
2022-08-07T04:44:24.619Z,4.00
2022-08-07T04:47:05.042Z,3.67
2022-08-07T04:49:40.687Z,2.93
2022-08-07T04:52:14.167Z,2.87
2022-08-07T04:54:50.401Z,3.30
2022-08-07T04:58:12.970Z,3.43
2022-08-07T05:00:17.371Z,3.60
2022-08-07T05:02:50.647Z,3.10
2022-08-07T05:05:51.884Z,3.47
2022-08-07T05:08:14.388Z,3.00
2022-08-07T05:10:44.562Z,3.10
2022-08-07T05:14:56.261Z,4.03
2022-08-07T05:16:09.552Z,3.50
2022-08-07T05:18:41.825Z,4.17
2022-08-07T05:21:11.863Z,3.47
2022-08-07T05:23:44.758Z,3.50
2022-08-07T05:26:23.724Z,3.97
2022-08-07T05:28:53.658Z,4.17
2022-08-07T05:31:35.151Z,3.77
2022-08-07T05:34:11.184Z,4.23
2022-08-07T05:36:40.893Z,4.40
2022-08-07T05:40:13.500Z,3.73
2022-08-07T05:42:01.175Z,4.20
2022-08-07T05:44:32.833Z,3.63
2022-08-07T05:47:18.137Z,3.90
2022-08-07T05:49:48.080Z,3.80
2022-08-07T05:52:16.315Z,4.43
2022-08-07T05:54:55.439Z,4.03
2022-08-07T05:57:29.949Z,3.33
2022-08-07T06:00:01.327Z,4.60
2022-08-07T06:02:33.010Z,4.07
2022-08-07T06:05:03.865Z,3.80
2022-08-07T06:08:14.536Z,2.13
2022-08-07T06:10:22.902Z,5.23
2022-08-07T06:12:51.223Z,3.30
2022-08-07T06:15:20.487Z,2.90
2022-08-07T06:17:53.696Z,1.80
2022-08-07T06:20:25.442Z,2.53
2022-08-07T06:23:24.837Z,2.40
2022-08-07T06:25:54.249Z,2.13
2022-08-07T06:28:27.708Z,2.20
2022-08-07T06:30:58.159Z,2.20
2022-08-07T06:33:29.596Z,2.30
2022-08-07T06:36:12.839Z,4.20
2022-08-07T06:38:58.374Z,3.17
2022-08-07T06:42:02.566Z,2.20
2022-08-07T06:44:22.136Z,2.33
2022-08-07T06:46:53.823Z,3.17
2022-08-07T06:49:52.396Z,2.67
2022-08-07T06:52:32.079Z,3.87
2022-08-07T06:55:31.287Z,3.53
2022-08-07T06:57:57.187Z,3.47
2022-08-07T07:00:30.460Z,2.70
2022-08-07T07:03:01.287Z,3.30
2022-08-07T07:06:05.214Z,2.20
2022-08-07T07:08:29.689Z,2.37
2022-08-07T07:11:00.997Z,2.17
2022-08-07T07:13:55.701Z,2.50
2022-08-07T07:16:23.705Z,3.03
2022-08-07T07:18:57.289Z,2.77
2022-08-07T07:21:40.306Z,2.10
2022-08-07T07:24:17.966Z,2.37
2022-08-07T07:26:51.644Z,2.90
2022-08-07T07:29:39.501Z,2.60
2022-08-07T07:32:12.898Z,2.30
2022-08-07T07:34:44.390Z,1.60
2022-08-07T07:37:21.988Z,1.83
2022-08-07T07:40:14.541Z,2.10
2022-08-07T07:42:47.159Z,2.00
2022-08-07T07:45:24.471Z,1.93
2022-08-07T07:48:09.579Z,2.13
2022-08-07T07:50:40.352Z,2.13
2022-08-07T07:53:20.356Z,1.50
2022-08-07T07:55:54.770Z,2.00
2022-08-07T07:58:26.535Z,2.20
2022-08-07T08:00:57.608Z,1.57
2022-08-07T08:04:10.772Z,1.60
2022-08-07T08:06:16.763Z,1.67
2022-08-07T08:08:48.305Z,1.73
2022-08-07T08:11:18.206Z,1.57
2022-08-07T08:14:05.395Z,1.53
2022-08-07T08:16:36.822Z,1.70
2022-08-07T08:19:09.701Z,2.10
2022-08-07T08:22:07.906Z,1.50
2022-08-07T08:25:04.735Z,1.43
2022-08-07T08:27:57.557Z,2.10
2022-08-07T08:30:32.018Z,1.80
2022-08-07T08:33:01.902Z,1.80
2022-08-07T08:35:39.533Z,1.70
2022-08-07T08:38:16.645Z,1.30
2022-08-07T08:40:48.829Z,2.10
2022-08-07T08:43:19.464Z,1.20
2022-08-07T08:45:59.563Z,1.30
2022-08-07T08:48:32.613Z,1.07
2022-08-07T08:51:14.205Z,1.40
2022-08-07T08:53:46.448Z,1.40
2022-08-07T08:56:17.438Z,1.30
2022-08-07T08:58:54.281Z,1.00
2022-08-07T09:01:29.552Z,1.20
2022-08-07T09:04:01.330Z,1.00
2022-08-07T09:06:40.218Z,1.23
2022-08-07T09:09:21.134Z,1.37
2022-08-07T09:12:08.929Z,1.10
2022-08-07T09:14:58.961Z,1.10
2022-08-07T09:17:33.973Z,0.90
2022-08-07T09:20:35.328Z,1.20
2022-08-07T09:24:33.686Z,1.00
2022-08-07T09:26:04.538Z,1.20
2022-08-07T09:30:06.491Z,1.10
2022-08-07T09:31:38.649Z,0.93
2022-08-07T09:34:12.907Z,1.77
2022-08-07T09:36:46.933Z,1.80
2022-08-07T09:39:53.642Z,1.20
2022-08-07T09:42:22.979Z,1.33
2022-08-07T09:47:51.359Z,1.67
2022-08-07T09:48:01.172Z,1.43
2022-08-07T09:50:34.982Z,1.20
2022-08-07T09:53:03.936Z,1.40
2022-08-07T09:56:03.106Z,1.10
2022-08-07T09:58:48.822Z,1.00
2022-08-07T10:01:51.245Z,1.63
2022-08-07T10:04:28.241Z,1.27
2022-08-07T10:07:06.913Z,0.80
2022-08-07T10:10:02.827Z,0.80
2022-08-07T10:12:52.620Z,1.00
2022-08-07T10:15:44.160Z,1.30
2022-08-07T10:18:26.299Z,1.10
2022-08-07T10:21:05.186Z,0.93
2022-08-07T10:24:06.303Z,1.00
2022-08-07T10:26:52.940Z,1.00
2022-08-07T10:29:45.642Z,1.43
2022-08-07T10:32:37.042Z,0.60
2022-08-07T10:35:25.484Z,0.97
2022-08-07T10:38:21.884Z,1.00
2022-08-07T10:40:53.361Z,1.20
2022-08-07T10:43:34.266Z,1.20
2022-08-07T10:46:07.764Z,1.47
2022-08-07T10:48:41.023Z,1.30
2022-08-07T10:51:16.914Z,1.03
2022-08-07T10:54:06.441Z,1.20
2022-08-07T10:56:38.311Z,1.10
2022-08-07T10:59:13.646Z,1.07
2022-08-07T11:02:05.151Z,4.00
2022-08-07T11:04:54.074Z,1.10
2022-08-07T11:07:59.327Z,1.30
2022-08-07T11:10:27.514Z,1.63
2022-08-07T11:13:02.495Z,1.03
2022-08-07T11:15:33.665Z,1.00
2022-08-07T11:18:04.809Z,1.63
2022-08-07T11:20:38.618Z,2.57
2022-08-07T11:23:20.724Z,2.37
2022-08-07T11:26:06.292Z,1.27
2022-08-07T11:28:37.204Z,2.07
2022-08-07T11:31:08.895Z,4.53
2022-08-07T11:33:53.367Z,2.43
2022-08-07T11:36:35.644Z,2.80
2022-08-07T11:39:08.875Z,2.80
2022-08-07T11:42:01.714Z,3.07
2022-08-07T11:44:34.809Z,2.47
2022-08-07T11:47:11.016Z,3.13
2022-08-07T11:50:32.501Z,1.50
2022-08-07T11:52:53.790Z,1.80
2022-08-07T11:56:08.605Z,1.80
2022-08-07T11:58:33.237Z,2.50
2022-08-07T12:01:10.782Z,2.20
2022-08-07T12:03:54.985Z,1.80
2022-08-07T12:06:37.171Z,2.53
2022-08-07T12:09:16.149Z,1.80
2022-08-07T12:12:09.985Z,1.80
2022-08-07T12:14:44.373Z,1.80
2022-08-07T12:17:24.973Z,1.70
2022-08-07T12:20:04.764Z,1.43
2022-08-07T12:22:47.288Z,1.60
2022-08-07T12:26:21.636Z,1.80
2022-08-07T12:28:44.958Z,2.30
2022-08-07T12:31:22.292Z,1.40
2022-08-07T12:34:01.363Z,1.50
2022-08-07T12:36:33.497Z,1.70
2022-08-07T12:39:03.356Z,1.47
2022-08-07T12:41:53.799Z,1.20
2022-08-07T12:44:26.346Z,1.23
2022-08-07T12:46:59.420Z,1.47
2022-08-07T12:49:49.133Z,1.00
2022-08-07T12:52:27.006Z,1.20
2022-08-07T12:55:03.928Z,1.50
2022-08-07T12:57:39.307Z,1.17
2022-08-07T13:00:32.563Z,1.30
2022-08-07T13:03:13.127Z,1.17
2022-08-07T13:06:03.023Z,1.10
2022-08-07T13:08:42.866Z,1.20
2022-08-07T13:11:26.761Z,1.20
2022-08-07T13:13:59.132Z,1.33
2022-08-07T13:16:33.117Z,1.37
2022-08-07T13:19:21.798Z,1.27
2022-08-07T13:22:19.880Z,0.90
2022-08-07T13:24:55.229Z,0.90
2022-08-07T13:27:33.286Z,1.10
2022-08-07T13:30:19.303Z,1.30
2022-08-07T13:33:16.472Z,1.00
2022-08-07T13:36:00.513Z,0.87
2022-08-07T13:38:32.943Z,1.30
2022-08-07T13:41:04.751Z,0.90
2022-08-07T13:43:43.051Z,0.90
2022-08-07T13:46:22.757Z,1.07
2022-08-07T13:48:58.587Z,2.10
2022-08-07T13:52:05.098Z,1.17
2022-08-07T13:54:22.554Z,0.90
2022-08-07T13:56:59.799Z,2.57
2022-08-07T13:59:31.683Z,1.20
2022-08-07T14:02:07.735Z,1.10
2022-08-07T14:04:50.335Z,1.70
2022-08-07T14:07:23.772Z,1.83
2022-08-07T14:10:17.658Z,2.27
2022-08-07T14:12:54.761Z,1.10
2022-08-07T14:15:31.744Z,1.63
2022-08-07T14:18:24.493Z,1.27
2022-08-07T14:21:08.179Z,1.30
2022-08-07T14:24:01.218Z,2.15
2022-08-07T14:26:33.489Z,1.40
2022-08-07T14:30:02.637Z,1.37
2022-08-07T14:31:57.807Z,1.07
2022-08-07T14:34:29.646Z,1.00
2022-08-07T14:37:01.813Z,1.10
2022-08-07T14:40:16.418Z,1.40
2022-08-07T14:42:24.923Z,1.83
2022-08-07T14:44:59.790Z,1.27
2022-08-07T14:50:23.647Z,1.07
2022-08-07T14:52:54.683Z,1.20
2022-08-07T14:55:23.884Z,1.47
2022-08-07T14:57:54.795Z,1.17
2022-08-07T15:03:19.639Z,1.27
2022-08-07T15:05:54.152Z,1.40
2022-08-07T15:08:32.282Z,1.43
2022-08-07T15:11:02.937Z,0.97
2022-08-07T15:13:35.951Z,1.23
2022-08-07T15:16:11.244Z,2.13
2022-08-07T15:18:45.374Z,1.77
2022-08-07T15:21:58.884Z,2.10
2022-08-07T15:25:15.513Z,1.70
2022-08-07T15:27:01.151Z,1.83
2022-08-07T15:32:39.924Z,1.90
2022-08-07T15:35:16.866Z,2.47
2022-08-07T15:38:04.842Z,1.87
2022-08-07T15:43:52.908Z,2.23
2022-08-07T15:46:31.742Z,2.20
2022-08-07T15:49:12.931Z,2.00
2022-08-07T15:54:27.564Z,2.30
2022-08-07T15:57:01.009Z,1.57
2022-08-07T15:59:39.603Z,2.30
2022-08-07T16:02:15.021Z,2.13
2022-08-07T16:04:44.449Z,1.90
2022-08-07T16:08:28.961Z,2.07
2022-08-07T16:10:11.683Z,1.87
2022-08-07T16:13:01.269Z,2.00
2022-08-07T16:15:54.579Z,2.63
2022-08-07T16:18:43.531Z,1.80
2022-08-07T16:22:02.326Z,2.77
2022-08-07T16:24:33.903Z,2.10
2022-08-07T16:27:17.915Z,1.93
2022-08-07T16:30:10.898Z,1.87
2022-08-07T16:32:46.470Z,1.87
2022-08-07T16:35:52.377Z,2.00
2022-08-07T16:39:00.687Z,1.87
2022-08-07T16:41:41.093Z,1.57
2022-08-07T16:44:46.967Z,1.90
2022-08-07T16:47:51.520Z,1.90
2022-08-07T16:50:39.062Z,1.70
2022-08-07T16:53:56.990Z,1.70
2022-08-07T16:56:20.012Z,1.80
2022-08-07T16:59:10.737Z,1.43
2022-08-07T17:01:50.514Z,1.53
2022-08-07T17:04:29.543Z,1.13
2022-08-07T17:07:04.231Z,1.47
2022-08-07T17:10:05.074Z,3.00
2022-08-07T17:12:33.854Z,1.67
2022-08-07T17:15:06.164Z,2.07
2022-08-07T17:17:46.501Z,2.10
2022-08-07T17:20:20.930Z,2.10
2022-08-07T17:22:56.201Z,2.57
2022-08-07T17:25:47.904Z,1.80
2022-08-07T17:28:19.544Z,1.70
2022-08-07T17:30:58.648Z,1.90
2022-08-07T17:34:09.887Z,2.23
2022-08-07T17:36:21.075Z,2.30
2022-08-07T17:39:02.276Z,1.37
2022-08-07T17:42:04.129Z,1.80
2022-08-07T17:44:45.578Z,1.70
2022-08-07T17:47:38.404Z,1.90
2022-08-07T17:50:16.418Z,1.33
2022-08-07T17:52:52.586Z,1.57
2022-08-07T17:56:00.800Z,1.50
2022-08-07T17:58:30.789Z,1.80
2022-08-07T18:01:01.147Z,1.60
2022-08-07T18:04:03.979Z,2.00
2022-08-07T18:06:37.138Z,1.60
2022-08-07T18:09:16.008Z,2.03
2022-08-07T18:12:16.227Z,1.90
2022-08-07T18:14:44.985Z,1.77
2022-08-07T18:18:36.519Z,1.83
2022-08-07T18:21:09.922Z,1.90
2022-08-07T18:23:07.019Z,1.50
2022-08-07T18:26:01.493Z,1.67
2022-08-07T18:28:35.739Z,1.90
2022-08-07T18:31:10.595Z,1.67
2022-08-07T18:33:54.937Z,1.70
2022-08-07T18:36:33.419Z,1.83
2022-08-07T18:40:07.974Z,1.90
2022-08-07T18:42:05.383Z,1.60
2022-08-07T18:47:45.340Z,2.00
2022-08-07T18:50:44.188Z,1.70
2022-08-07T18:53:18.757Z,2.13
2022-08-07T18:55:57.632Z,1.93
2022-08-07T18:58:44.190Z,1.90
2022-08-07T19:02:19.153Z,2.00
2022-08-07T19:04:39.825Z,2.07
2022-08-07T19:07:18.491Z,1.90
2022-08-07T19:10:06.736Z,2.10
2022-08-07T19:12:53.720Z,2.07
2022-08-07T19:16:05.270Z,2.00
2022-08-07T19:18:34.171Z,2.13
2022-08-07T19:21:13.943Z,1.90
2022-08-07T19:24:00.370Z,2.17
2022-08-07T19:26:39.573Z,1.90
2022-08-07T19:31:04.083Z,2.03
2022-08-07T19:32:25.712Z,2.23
2022-08-07T19:35:02.977Z,2.00
2022-08-07T19:37:55.120Z,2.00
2022-08-07T19:40:31.719Z,2.33
2022-08-07T19:43:03.571Z,1.93
2022-08-07T19:46:08.189Z,2.40
2022-08-07T19:48:26.885Z,2.33
2022-08-07T19:50:57.610Z,2.07
2022-08-07T19:54:30.848Z,1.97
2022-08-07T19:58:01.693Z,2.07
2022-08-07T19:59:08.603Z,1.90
2022-08-07T20:01:56.302Z,2.30
2022-08-07T20:04:32.061Z,1.83
2022-08-07T20:07:09.092Z,2.10
2022-08-07T20:10:35.218Z,3.20
2022-08-07T20:12:34.955Z,2.30
2022-08-07T20:15:09.557Z,2.63
2022-08-07T20:17:45.097Z,2.07
2022-08-07T20:20:30.494Z,2.50
2022-08-07T20:23:23.107Z,2.60
2022-08-07T20:25:53.316Z,2.40
2022-08-07T20:28:29.710Z,2.67
2022-08-07T20:30:58.929Z,6.57
2022-08-07T20:33:38.028Z,5.80
2022-08-07T20:36:08.223Z,5.60
2022-08-07T20:38:59.569Z,3.33
2022-08-07T20:41:33.994Z,2.97
2022-08-07T20:44:12.541Z,2.80
2022-08-07T20:46:44.948Z,2.30
2022-08-07T20:50:01.213Z,2.47
2022-08-07T20:52:09.263Z,3.27
2022-08-07T20:54:53.207Z,2.73
2022-08-07T20:57:23.607Z,2.67
2022-08-07T21:00:08.145Z,2.43
2022-08-07T21:03:01.199Z,3.30
2022-08-07T21:05:52.741Z,3.30
2022-08-07T21:08:37.579Z,3.73
2022-08-07T21:11:12.215Z,5.00
2022-08-07T21:14:20.058Z,4.00
2022-08-07T21:16:38.075Z,5.30
2022-08-07T21:19:32.074Z,4.17
2022-08-07T21:22:15.055Z,3.30
2022-08-07T21:24:52.612Z,1.97
2022-08-07T21:27:40.053Z,4.13
2022-08-07T21:30:16.986Z,3.57
2022-08-07T21:32:52.249Z,3.80
2022-08-07T21:35:34.676Z,4.13
2022-08-07T21:38:14.666Z,5.50
2022-08-07T21:40:47.616Z,5.23
2022-08-07T21:43:22.806Z,5.93
2022-08-07T21:46:07.694Z,5.60
2022-08-07T21:48:55.680Z,5.13
2022-08-07T21:51:32.160Z,5.60
2022-08-07T21:54:06.005Z,5.63
2022-08-07T21:56:46.999Z,5.43
2022-08-07T21:59:23.790Z,4.80
2022-08-07T22:02:11.392Z,5.47
2022-08-07T22:04:51.207Z,4.90
2022-08-07T22:07:31.262Z,5.80
2022-08-07T22:10:05.102Z,4.83
2022-08-07T22:12:37.299Z,5.20
2022-08-07T22:16:38.768Z,4.53
2022-08-07T22:18:04.624Z,4.90
2022-08-07T22:20:39.668Z,5.33
2022-08-07T22:23:13.621Z,4.57
2022-08-07T22:25:45.229Z,4.90
2022-08-07T22:28:30.094Z,4.53
2022-08-07T22:31:05.452Z,4.63
2022-08-07T22:33:52.632Z,4.13
2022-08-07T22:36:28.558Z,4.87
2022-08-07T22:38:59.506Z,4.47
2022-08-07T22:42:04.118Z,4.70
2022-08-07T22:44:21.686Z,5.00
2022-08-07T22:47:06.209Z,4.80
2022-08-07T22:49:51.888Z,4.70
2022-08-07T22:52:37.312Z,5.27
2022-08-07T22:55:22.985Z,5.10
2022-08-07T22:58:03.695Z,4.73
2022-08-07T23:00:35.807Z,5.37
2022-08-07T23:03:27.526Z,4.67
2022-08-07T23:06:09.346Z,4.40
2022-08-07T23:08:55.878Z,4.63
2022-08-07T23:11:41.351Z,5.07
2022-08-07T23:14:24.511Z,5.10
2022-08-07T23:17:04.884Z,5.27
2022-08-07T23:20:13.629Z,4.73
2022-08-07T23:22:52.309Z,5.53
2022-08-07T23:25:28.230Z,4.90
2022-08-07T23:28:21.311Z,5.10
2022-08-07T23:31:06.674Z,4.97
2022-08-07T23:34:34.908Z,4.93
2022-08-07T23:36:46.731Z,4.13
2022-08-07T23:39:41.016Z,4.47
2022-08-07T23:42:15.701Z,5.10
2022-08-07T23:45:15.014Z,4.70
2022-08-07T23:48:06.649Z,4.80
2022-08-07T23:50:43.062Z,4.00
2022-08-07T23:53:23.572Z,4.70
2022-08-07T23:56:20.975Z,5.10
2022-08-07T23:58:55.363Z,6.20
